Time;durP1;ratioP1;P1;durP2;ratioP2;P2;SDS_P1;SDS_P2;PMS_P1;PMS_P2;Temp;Humidity;BMP_temperature;BMP_pressure;BME280_temperature;BME280_humidity;BME280_pressure;Samples;Min_cycle;Max_cycle;Signal;HPM_P1;HPM_P2
2020/12/12 00:09:56;;;;;;;37.37;20.10;;;;;;;0.08;88.81;98344.12;517599;1096;65168;-65
2020/12/12 00:20:00;;;;;;;37.67;19.87;;;;;;;0.08;87.90;98359.61;517380;1097;65373;-66
2020/12/12 00:30:05;;;;;;;38.83;18.83;;;;;;;0.08;88.51;98335.55;518950;1095;65631;-65
2020/12/12 00:40:10;;;;;;;35.87;18.43;;;;;;;0.09;87.87;98342.39;517831;1097;65220;-65
2020/12/12 00:50:13;;;;;;;32.50;18.45;;;;;;;0.09;88.40;98329.48;517298;1090;65588;-61
2020/12/12 01:00:17;;;;;;;35.07;19.73;;;;;;;0.09;88.76;98335.47;517294;1095;65567;-61
2020/12/12 01:10:21;;;;;;;34.37;20.03;;;;;;;0.04;88.53;98341.72;517303;1095;65239;-61
2020/12/12 01:20:25;;;;;;;29.13;16.90;;;;;;;0.05;88.37;98344.25;517604;1095;65156;-61
2020/12/12 01:30:29;;;;;;;29.27;19.10;;;;;;;0.03;88.45;98340.05;517764;1095;65179;-62
2020/12/12 01:40:33;;;;;;;30.43;18.83;;;;;;;-0.06;89.11;98334.38;517449;1095;65258;-62
2020/12/12 01:50:38;;;;;;;28.73;17.30;;;;;;;-0.09;88.86;98325.92;517593;1096;65530;-62
2020/12/12 02:00:42;;;;;;;28.65;16.85;;;;;;;-0.13;88.39;98335.52;517807;1095;65159;-61
2020/12/12 02:10:48;;;;;;;32.90;17.50;;;;;;;-0.05;89.00;98340.36;517596;1095;65179;-62
2020/12/12 02:20:53;;;;;;;26.27;18.40;;;;;;;0.02;88.91;98338.38;517629;1090;65294;-62
2020/12/12 02:30:57;;;;;;;33.77;17.53;;;;;;;-0.05;88.71;98322.30;517655;1095;65179;-63
2020/12/12 02:41:02;;;;;;;28.03;15.73;;;;;;;-0.07;89.14;98324.93;517062;1095;65480;-62
2020/12/12 02:51:06;;;;;;;28.87;16.27;;;;;;;-0.10;89.15;98330.23;517297;1090;65150;-63
2020/12/12 03:01:10;;;;;;;26.93;15.07;;;;;;;-0.14;89.38;98323.52;517602;1097;66090;-62
2020/12/12 03:11:14;;;;;;;26.67;17.03;;;;;;;-0.17;88.41;98303.02;517698;1095;65179;-62
2020/12/12 03:21:18;;;;;;;22.13;14.23;;;;;;;-0.25;89.52;98300.72;517759;1095;65252;-60
2020/12/12 03:31:22;;;;;;;21.47;13.37;;;;;;;-0.18;88.94;98307.32;517542;1096;65293;-62
2020/12/12 03:41:26;;;;;;;19.57;12.47;;;;;;;-0.15;89.05;98306.36;517471;1095;65223;-62
2020/12/12 03:51:30;;;;;;;26.40;15.25;;;;;;;-0.08;89.35;98312.94;517614;1095;65175;-62
2020/12/12 04:01:34;;;;;;;23.50;15.57;;;;;;;-0.09;88.99;98321.58;517568;1095;65162;-62
2020/12/12 04:11:38;;;;;;;29.43;19.13;;;;;;;-0.18;89.04;98301.30;517691;1095;65179;-63
2020/12/12 04:21:42;;;;;;;26.47;17.27;;;;;;;-0.14;89.84;98305.46;517782;1095;65282;-64
2020/12/12 04:31:46;;;;;;;27.97;18.07;;;;;;;-0.07;89.97;98316.37;517853;1095;65297;-61
2020/12/12 04:41:53;;;;;;;22.83;15.87;;;;;;;-0.07;89.22;98319.77;517818;1095;65217;-61
2020/12/12 04:51:57;;;;;;;25.95;17.60;;;;;;;-0.03;90.06;98315.33;517758;1095;65193;-61
2020/12/12 05:02:03;;;;;;;26.97;18.03;;;;;;;0.01;89.07;98321.20;517848;1095;65633;-62
2020/12/12 05:12:07;;;;;;;24.13;16.07;;;;;;;0.03;89.27;98316.81;517664;1095;65232;-62
2020/12/12 05:22:12;;;;;;;20.87;14.90;;;;;;;0.02;88.67;98321.16;517902;1095;65474;-61
2020/12/12 05:32:17;;;;;;;21.87;16.10;;;;;;;0.02;89.43;98317.72;518136;1090;65146;-62
2020/12/12 05:42:22;;;;;;;18.40;14.63;;;;;;;0.04;89.16;98313.33;517924;1095;65214;-62
2020/12/12 05:52:27;;;;;;;21.53;14.90;;;;;;;0.06;89.02;98314.95;517628;1095;65150;-62
2020/12/12 06:02:35;;;;;;;27.47;15.80;;;;;;;0.12;89.64;98309.55;517608;1090;65179;-62
2020/12/12 06:12:42;;;;;;;21.53;14.87;;;;;;;0.19;89.01;98314.44;517549;1097;65538;-62
2020/12/12 06:22:47;;;;;;;23.65;15.93;;;;;;;0.22;88.76;98317.73;517741;1095;65181;-61
2020/12/12 06:32:58;;;;;;;20.93;14.13;;;;;;;0.25;88.86;98329.69;517401;1090;65260;-62
2020/12/12 06:43:02;;;;;;;21.03;15.73;;;;;;;0.25;88.26;98332.27;517484;1095;65625;-61
2020/12/12 06:53:18;;;;;;;21.25;14.45;;;;;;;0.35;88.71;98325.81;517519;1097;65171;-61
2020/12/12 07:03:25;;;;;;;23.90;14.75;;;;;;;0.40;88.65;98331.61;517537;1090;65169;-62
2020/12/12 07:13:30;;;;;;;17.90;12.50;;;;;;;0.48;88.28;98335.62;516946;1097;65153;-62
2020/12/12 07:23:39;;;;;;;15.97;13.33;;;;;;;0.57;88.36;98347.29;517463;1090;65155;-61
2020/12/12 07:33:48;;;;;;;13.70;10.38;;;;;;;0.69;88.23;98345.03;508205;1090;10003700;-61
2020/12/12 07:43:58;;;;;;;14.83;9.80;;;;;;;0.76;88.20;98355.93;517012;1090;65271;-62
2020/12/12 07:54:11;;;;;;;13.50;11.20;;;;;;;0.83;88.14;98348.75;517034;1095;65656;-67
2020/12/12 08:04:25;;;;;;;17.20;11.47;;;;;;;0.92;86.99;98347.49;516839;1090;65597;-56
2020/12/12 08:14:31;;;;;;;12.83;9.00;;;;;;;1.04;87.12;98343.50;516424;1095;65157;-59
2020/12/12 08:24:35;;;;;;;13.00;11.33;;;;;;;1.07;87.28;98356.31;516574;1090;65160;-59
2020/12/12 08:34:40;;;;;;;15.67;9.87;;;;;;;1.05;87.31;98363.30;516734;1095;65245;-60
2020/12/12 08:44:44;;;;;;;14.03;11.57;;;;;;;1.04;87.52;98367.63;516718;1096;65589;-60
2020/12/12 08:54:59;;;;;;;16.40;11.17;;;;;;;1.16;86.77;98365.39;517082;1095;65720;-61
2020/12/12 09:05:11;;;;;;;12.37;9.37;;;;;;;1.13;86.79;98368.95;517951;1094;65179;-62
2020/12/12 09:15:15;;;;;;;15.77;11.47;;;;;;;1.19;87.32;98353.17;517526;1095;65597;-60
2020/12/12 09:25:19;;;;;;;15.47;11.30;;;;;;;1.28;87.31;98341.55;517621;1095;65211;-60
2020/12/12 09:35:23;;;;;;;15.63;12.93;;;;;;;1.20;87.25;98349.67;517522;1090;65151;-62
2020/12/12 09:45:27;;;;;;;18.50;11.47;;;;;;;1.28;86.65;98343.33;517372;1095;65314;-62
2020/12/12 09:55:31;;;;;;;17.73;13.17;;;;;;;1.25;86.85;98345.12;517476;1095;65178;-61
2020/12/12 10:05:36;;;;;;;16.47;12.23;;;;;;;1.27;87.14;98332.13;517618;1095;65175;-60
2020/12/12 10:15:42;;;;;;;14.83;11.37;;;;;;;1.35;86.87;98326.59;517675;1095;65271;-61
2020/12/12 10:25:46;;;;;;;10.60;8.80;;;;;;;1.34;86.56;98330.09;517166;1090;65153;-62
2020/12/12 10:35:50;;;;;;;14.00;9.93;;;;;;;1.40;86.58;98335.81;517459;1095;65153;-76
2020/12/12 10:45:54;;;;;;;13.20;10.93;;;;;;;1.49;86.15;98329.36;511519;1090;10001450;-75
2020/12/12 10:55:59;;;;;;;19.27;11.43;;;;;;;1.62;86.26;98339.16;520383;1095;65182;-70
2020/12/12 11:06:02;;;;;;;14.33;11.13;;;;;;;1.73;86.16;98333.46;517233;1090;65203;-68
2020/12/12 11:16:06;;;;;;;17.07;12.70;;;;;;;1.79;86.05;98346.09;516670;1090;65356;-70
2020/12/12 11:26:11;;;;;;;18.07;13.27;;;;;;;1.88;86.14;98345.66;516805;1090;65627;-62
2020/12/12 11:36:30;;;;;;;18.57;12.90;;;;;;;2.01;85.85;98340.73;517346;1097;65259;-69
2020/12/12 11:46:36;;;;;;;16.47;12.87;;;;;;;2.13;85.52;98353.98;517497;1098;65232;-70
2020/12/12 11:56:40;;;;;;;11.80;9.90;;;;;;;1.99;85.25;98370.19;517499;1090;65154;-64
2020/12/12 12:06:44;;;;;;;11.70;9.85;;;;;;;1.78;84.99;98371.16;517527;1090;65207;-73
2020/12/12 12:16:50;;;;;;;14.43;10.67;;;;;;;1.67;85.05;98384.61;517343;1096;65153;-71
2020/12/12 12:26:55;;;;;;;15.45;10.85;;;;;;;1.62;85.30;98376.20;517514;1095;65258;-72
2020/12/12 12:36:59;;;;;;;12.53;10.57;;;;;;;1.64;85.32;98386.50;517558;1090;65182;-65
2020/12/12 12:47:03;;;;;;;13.80;10.43;;;;;;;1.58;84.90;98392.80;517379;1090;65153;-65
2020/12/12 12:57:07;;;;;;;10.07;8.90;;;;;;;1.51;85.23;98384.48;517610;1095;65237;-71
2020/12/12 13:07:11;;;;;;;12.87;10.03;;;;;;;1.51;84.94;98384.48;517616;1095;65320;-72
2020/12/12 13:17:17;;;;;;;10.50;9.37;;;;;;;1.52;84.82;98387.89;517512;1095;65281;-67
2020/12/12 13:27:21;;;;;;;9.53;8.38;;;;;;;1.56;84.42;98393.77;509039;1090;10001300;-69
2020/12/12 13:37:25;;;;;;;11.23;8.73;;;;;;;1.59;84.45;98391.03;516670;1096;65239;-66
2020/12/12 13:47:29;;;;;;;13.00;9.73;;;;;;;1.63;84.23;98408.94;517214;1090;65182;-65
2020/12/12 13:57:34;;;;;;;11.30;9.60;;;;;;;1.64;84.33;98413.20;516863;1090;65485;-69
2020/12/12 14:07:41;;;;;;;11.70;9.43;;;;;;;1.65;84.21;98416.64;517067;1095;65150;-64
2020/12/12 14:38:32;;;;;;;15.03;11.23;;;;;;;1.58;83.62;98446.28;516750;1097;65239;-68
2020/12/12 14:48:36;;;;;;;16.80;11.47;;;;;;;1.57;83.99;98450.64;516676;1095;65259;-65
2020/12/12 14:58:40;;;;;;;16.90;12.33;;;;;;;1.61;83.67;98448.72;516845;1095;65616;-63
2020/12/12 15:08:44;;;;;;;17.27;13.83;;;;;;;1.57;84.08;98467.89;517269;1095;65226;-64
2020/12/12 15:18:48;;;;;;;21.70;15.37;;;;;;;1.51;84.37;98463.84;516902;1096;65157;-67
2020/12/12 15:28:52;;;;;;;16.87;13.33;;;;;;;1.43;84.30;98468.50;516815;1095;65373;-68
2020/12/12 15:38:56;;;;;;;16.33;10.53;;;;;;;1.39;83.92;98483.34;516643;1097;65245;-67
2020/12/12 15:49:01;;;;;;;15.23;11.23;;;;;;;1.37;84.05;98480.82;516969;1095;65255;-65
2020/12/12 15:59:05;;;;;;;16.90;12.93;;;;;;;1.40;84.10;98485.84;516991;1095;65176;-65
2020/12/12 16:09:09;;;;;;;15.80;10.93;;;;;;;1.42;84.25;98490.97;516535;1097;65178;-67
2020/12/12 16:19:13;;;;;;;14.90;10.63;;;;;;;1.43;83.81;98487.47;516890;1090;65546;-70
2020/12/12 16:29:20;;;;;;;14.83;10.47;;;;;;;1.44;83.88;98485.70;516968;1090;65188;-68
2020/12/12 16:39:25;;;;;;;19.40;12.43;;;;;;;1.46;84.00;98489.09;516767;1090;65236;-67
2020/12/12 16:49:29;;;;;;;18.87;12.03;;;;;;;1.48;84.00;98492.44;517051;1095;65179;-65
2020/12/12 16:59:33;;;;;;;19.03;12.33;;;;;;;1.47;84.02;98501.11;517058;1095;65153;-67
2020/12/12 17:09:41;;;;;;;16.17;11.87;;;;;;;1.44;83.69;98503.81;516936;1095;65179;-73
2020/12/12 17:19:44;;;;;;;;;;;;;;;1.45;83.83;98514.11;516568;1090;65251;-68
2020/12/12 17:29:48;;;;;;;20.37;14.57;;;;;;;1.48;84.24;98505.38;516443;1090;65168;-70
2020/12/12 17:39:52;;;;;;;21.00;14.55;;;;;;;1.37;84.60;98523.94;516600;1097;65174;-66
2020/12/12 17:49:55;;;;;;;17.77;12.30;;;;;;;1.37;83.84;98531.70;516693;1090;65185;-67
2020/12/12 17:59:59;;;;;;;23.37;14.33;;;;;;;1.27;84.22;98541.61;516365;1097;65176;-66
2020/12/12 18:10:09;;;;;;;18.65;13.70;;;;;;;1.24;84.27;98559.86;516489;1095;65643;-68
2020/12/12 18:20:14;;;;;;;21.43;14.23;;;;;;;1.19;84.65;98561.77;517161;1097;65207;-68
2020/12/12 18:30:19;;;;;;;19.20;13.77;;;;;;;1.14;84.84;98569.73;517204;1097;65150;-63
2020/12/12 18:40:23;;;;;;;19.27;13.77;;;;;;;1.10;84.15;98588.87;516752;1097;65153;-68
2020/12/12 18:50:29;;;;;;;25.03;14.10;;;;;;;1.07;84.22;98586.41;516935;1096;65248;-73
2020/12/12 19:00:33;;;;;;;22.80;15.45;;;;;;;1.01;84.50;98595.27;517071;1096;65281;-66
2020/12/12 19:10:37;;;;;;;23.03;14.83;;;;;;;1.02;85.19;98596.09;517014;1095;65580;-68
2020/12/12 19:20:41;;;;;;;25.05;16.20;;;;;;;0.98;84.66;98598.81;517302;1095;65163;-69
2020/12/12 19:30:45;;;;;;;22.87;15.43;;;;;;;1.01;84.38;98609.92;517257;1095;65146;-69
2020/12/12 19:40:50;;;;;;;22.03;14.17;;;;;;;0.95;84.86;98614.45;516962;1095;65178;-69
2020/12/12 19:50:57;;;;;;;23.70;17.93;;;;;;;0.95;84.55;98631.69;517270;1097;65223;-68
2020/12/12 20:01:05;;;;;;;23.70;16.90;;;;;;;0.94;84.53;98636.03;516708;1090;65853;-65
2020/12/12 20:11:12;;;;;;;24.10;14.97;;;;;;;0.97;84.89;98648.83;516536;1090;65303;-66
2020/12/12 20:21:16;;;;;;;29.43;17.80;;;;;;;0.93;84.82;98649.86;517053;1097;65303;-66
2020/12/12 20:31:20;;;;;;;25.93;16.50;;;;;;;0.91;85.13;98651.64;516383;1090;65197;-66
2020/12/12 20:41:24;;;;;;;24.10;16.57;;;;;;;0.90;84.83;98657.72;517026;1090;65258;-66
2020/12/12 20:51:29;;;;;;;28.87;19.23;;;;;;;0.93;85.14;98664.52;516451;1097;65488;-64
2020/12/12 21:01:33;;;;;;;25.70;17.50;;;;;;;0.88;85.14;98664.70;517753;1090;65274;-67
2020/12/12 21:11:37;;;;;;;24.63;16.93;;;;;;;0.88;84.53;98664.70;516686;1095;65463;-67
2020/12/12 21:21:41;;;;;;;20.40;14.03;;;;;;;0.93;84.83;98672.28;516444;1090;65226;-67
2020/12/12 21:31:45;;;;;;;31.17;18.80;;;;;;;0.93;85.17;98691.23;516256;1090;65156;-61
2020/12/12 21:41:50;;;;;;;28.25;19.00;;;;;;;1.02;85.41;98704.67;516563;1096;65563;-65
2020/12/12 21:51:54;;;;;;;23.27;15.93;;;;;;;0.99;85.27;98705.66;516617;1097;65343;-61
2020/12/12 22:02:02;;;;;;;23.80;16.03;;;;;;;1.13;84.98;98712.85;516673;1095;65259;-67
2020/12/12 22:12:06;;;;;;;27.50;17.67;;;;;;;1.26;84.90;98726.97;516698;1096;65194;-71
2020/12/12 22:22:12;;;;;;;22.77;14.63;;;;;;;1.23;84.97;98728.86;516761;1095;65530;-67
2020/12/12 22:32:16;;;;;;;24.60;15.57;;;;;;;1.12;85.74;98726.69;516637;1097;65179;-74
2020/12/12 22:42:21;;;;;;;28.17;16.40;;;;;;;1.10;85.58;98723.32;516416;1097;65333;-62
2020/12/12 22:52:26;;;;;;;19.87;12.83;;;;;;;1.03;85.81;98735.65;519878;1090;65454;-73
2020/12/12 23:02:30;;;;;;;25.93;15.67;;;;;;;0.93;85.59;98734.31;520136;1097;65414;-70
2020/12/12 23:12:34;;;;;;;25.40;14.40;;;;;;;0.95;85.83;98741.13;520110;1095;65384;-70
2020/12/12 23:22:41;;;;;;;24.13;15.90;;;;;;;0.98;86.38;98735.83;520039;1095;65620;-69
2020/12/12 23:32:45;;;;;;;;;;;;;;;0.98;86.02;98746.16;517046;1090;65154;-69
2020/12/12 23:42:49;;;;;;;23.37;15.37;;;;;;;1.05;86.69;98743.36;517278;1096;65512;-69
2020/12/12 23:52:53;;;;;;;23.77;15.00;;;;;;;1.03;86.49;98752.89;517148;1095;65147;-70
